Rio Ceballos, Argentina
Current Conditions -  °F | °C
As of 11:00 PM on Saturday 20 Dec 2014 (Local Time) from SACO Reporting Station
Thunderstorm Thunderstorm  
Wind Chill: 19°   Ceiling: 5000
Heat Index: 19°   Visibility: 6mi
Dew Point:   Wind: 24mph
Humidity: 40%   Direction: 180°S
Pressure: 29.83"   Gusts: 36mph
Location:  31.17°S, 64.33°W
Report Text: SACO 210200Z 18021G31KT 9000 TSRA SCT030FEW032CB BKN050 19/05 Q1010
Loading
Personal Weather Stations






























Interactive Weather Map New forecast layout! Learn more

10-Day Weather Forecast

Advertisements
Track Severe Weather on mobile